KVAD/VAD METAR and TAF weather

Enter ICAO airport designator
Station Type Date Time Source
KVAD METAR 2023/02/05 22:55 UTC NOAA

KVAD 052255Z AUTO 00000KT 10SM CLR 19/09 A3012 RMK AO2 SLP202 T01890091 $


Station Type Date Time Source
KVAD Decoded METAR 2023/02/05 22:55 UTC NOAA

Moody Air Force Base, GA, United States (KVAD) 30-58N 083-12W 71M
Feb 05, 2023 - 05:55 PM EST / 2023.02.05 2255 UTC
Wind: Calm:0
Visibility: 10 mile(s):0
Sky conditions: clear
Temperature: 66.0 F (18.9 C)
Dew Point: 48.4 F (9.1 C)
Relative Humidity: 52%
Pressure (altimeter): 30.12 in. Hg (1019 hPa)
ob: KVAD 052255Z AUTO 00000KT 10SM CLR 19/09 A3012 RMK AO2 SLP202 T01890091
cycle: 23

Station Type Date Time Source
KVAD TAF 2023/02/04 20:56 UTC NOAA

TAF
AMD KVAD 042030Z 0420/0602 06012G20KT 9999 SKC QNH3039INS
BECMG 0505/0506 04006KT 9999 BKN020 QNH3037INS
BECMG 0521/0522 33009KT 9999 SCT030 QNH3018INS TX17/0421Z TN06/0511Z LAST NO
AMDS AFT 0420 NEXT 0609

Example: see airport list